createdAt,value
2023-04-30T00:01:41.401Z,100118.66
2023-04-30T00:04:13.749Z,100123.99
2023-04-30T00:06:46.209Z,100132.66
2023-04-30T00:09:18.318Z,100130.16
2023-04-30T00:11:50.566Z,100127.59
2023-04-30T00:14:22.760Z,100125.98
2023-04-30T00:16:54.767Z,100133.03
2023-04-30T00:19:27.053Z,100137.55
2023-04-30T00:22:01.007Z,100140.31
2023-04-30T00:24:33.137Z,100136.97
2023-04-30T00:27:05.161Z,100132.70
2023-04-30T00:29:37.865Z,100132.70
2023-04-30T00:32:09.967Z,100136.22
2023-04-30T00:34:42.276Z,100140.57
2023-04-30T00:37:14.456Z,100146.73
2023-04-30T00:39:46.521Z,100155.46
2023-04-30T00:42:18.598Z,100152.15
2023-04-30T00:44:50.653Z,100152.23
2023-04-30T00:47:22.853Z,100154.92
2023-04-30T00:49:55.539Z,100153.26
2023-04-30T00:52:28.883Z,100155.11
2023-04-30T00:55:01.071Z,100152.59
2023-04-30T00:57:35.581Z,100149.19
2023-04-30T01:00:10.120Z,100147.50
2023-04-30T01:02:42.656Z,100148.44
2023-04-30T01:05:14.866Z,100148.44
2023-04-30T01:07:47.259Z,100148.55
2023-04-30T01:10:19.797Z,100152.03
2023-04-30T01:12:54.749Z,100144.33
2023-04-30T01:15:35.765Z,100151.31
2023-04-30T01:18:20.005Z,100154.75
2023-04-30T01:20:57.866Z,100147.88
2023-04-30T01:23:42.254Z,100154.75
2023-04-30T01:26:36.610Z,100156.53
2023-04-30T01:29:11.482Z,100152.23
2023-04-30T01:31:45.514Z,100152.94
2023-04-30T01:34:17.918Z,100147.77
2023-04-30T01:37:01.852Z,100153.02
2023-04-30T01:39:42.367Z,100148.80
2023-04-30T01:42:26.484Z,100154.08
2023-04-30T01:45:25.469Z,100159.33
2023-04-30T01:48:00.756Z,100155.06
2023-04-30T01:50:41.781Z,100162.02
2023-04-30T01:53:17.289Z,100150.69
2023-04-30T01:55:54.860Z,100152.42
2023-04-30T01:58:28.084Z,100153.25
2023-04-30T02:01:00.254Z,100163.67
2023-04-30T02:03:34.043Z,100161.03
2023-04-30T02:06:06.973Z,100155.78
2023-04-30T02:08:39.016Z,100144.41
2023-04-30T02:11:11.288Z,100154.64
2023-04-30T02:13:43.510Z,100157.17
2023-04-30T02:16:15.870Z,100146.70
2023-04-30T02:18:48.520Z,100137.86
2023-04-30T02:21:20.573Z,100139.44
2023-04-30T02:23:52.947Z,100140.10
2023-04-30T02:26:26.741Z,100134.69
2023-04-30T02:28:58.941Z,100132.79
2023-04-30T02:31:31.277Z,100134.31
2023-04-30T02:34:03.505Z,100139.32
2023-04-30T02:36:36.734Z,100126.94
2023-04-30T02:39:09.219Z,100124.95
2023-04-30T02:41:41.380Z,100121.22
2023-04-30T02:44:13.756Z,100122.60
2023-04-30T02:46:46.852Z,100115.37
2023-04-30T02:49:19.110Z,100101.10
2023-04-30T02:51:51.179Z,100112.09
2023-04-30T02:54:23.315Z,100103.03
2023-04-30T02:56:55.411Z,100111.36
2023-04-30T02:59:27.577Z,100100.59
2023-04-30T03:01:59.782Z,100104.64
2023-04-30T03:04:31.910Z,100096.53
2023-04-30T03:07:04.460Z,100104.02
2023-04-30T03:09:37.660Z,100099.43
2023-04-30T03:12:10.012Z,100104.39
2023-04-30T03:14:42.447Z,100108.47
2023-04-30T03:17:14.578Z,100104.73
2023-04-30T03:19:46.708Z,100102.73
2023-04-30T03:22:23.112Z,100105.86
2023-04-30T03:24:55.648Z,100101.19
2023-04-30T03:27:27.965Z,100102.59
2023-04-30T03:30:00.335Z,100094.44
2023-04-30T03:32:34.933Z,100095.00
2023-04-30T03:35:08.046Z,100085.91
2023-04-30T03:37:40.305Z,100093.39
2023-04-30T03:40:13.422Z,100093.88
2023-04-30T03:42:46.884Z,100082.20
2023-04-30T03:45:20.226Z,100069.64
2023-04-30T03:47:53.275Z,100071.93
2023-04-30T03:50:25.645Z,100072.52
2023-04-30T03:52:57.690Z,100070.44
2023-04-30T03:55:30.164Z,100070.96
2023-04-30T03:58:02.646Z,100073.24
2023-04-30T04:00:34.830Z,100070.44
2023-04-30T04:03:07.556Z,100069.20
2023-04-30T04:05:39.737Z,100075.80
2023-04-30T04:08:12.514Z,100066.75
2023-04-30T04:10:45.152Z,100066.47
2023-04-30T04:13:17.191Z,100069.53
2023-04-30T04:15:49.476Z,100066.49
2023-04-30T04:18:21.727Z,100062.48
2023-04-30T04:20:53.696Z,100065.44
2023-04-30T04:23:26.374Z,100071.05
2023-04-30T04:25:58.441Z,100059.39
2023-04-30T04:28:31.107Z,100059.95
2023-04-30T04:31:03.608Z,100054.40
2023-04-30T04:33:37.336Z,100056.81
2023-04-30T04:36:09.498Z,100052.19
2023-04-30T04:38:42.536Z,100053.75
2023-04-30T04:41:14.992Z,100054.37
2023-04-30T04:43:47.104Z,100041.03
2023-04-30T04:46:19.659Z,100035.47
2023-04-30T04:48:51.898Z,100038.57
2023-04-30T04:51:24.143Z,100040.66
2023-04-30T04:53:56.463Z,100034.73
2023-04-30T04:56:28.599Z,100034.90
2023-04-30T04:59:01.009Z,100031.39
2023-04-30T05:01:33.530Z,100039.17
2023-04-30T05:04:05.906Z,100041.69
2023-04-30T05:06:38.308Z,100045.23
2023-04-30T05:09:10.973Z,100046.86
2023-04-30T05:11:44.113Z,100040.77
2023-04-30T05:14:16.411Z,100047.99
2023-04-30T05:16:49.358Z,100042.05
2023-04-30T05:19:22.237Z,100044.94
2023-04-30T05:21:54.804Z,100037.17
2023-04-30T05:24:26.953Z,100031.58
2023-04-30T05:26:59.174Z,100035.45
2023-04-30T05:29:31.933Z,100030.67
2023-04-30T05:32:04.153Z,100030.05
2023-04-30T05:34:36.375Z,100026.13
2023-04-30T05:37:08.520Z,100021.91
2023-04-30T05:39:40.972Z,100019.27
2023-04-30T05:42:13.058Z,100024.97
2023-04-30T05:44:45.149Z,100023.77
2023-04-30T05:47:17.278Z,100026.97
2023-04-30T05:49:49.523Z,100031.80
2023-04-30T05:52:21.856Z,100019.66
2023-04-30T05:54:54.138Z,100026.09
2023-04-30T05:57:26.463Z,100022.11
2023-04-30T05:59:58.610Z,100019.11
2023-04-30T06:02:32.679Z,100026.63
2023-04-30T06:05:05.227Z,100029.28
2023-04-30T06:07:37.884Z,100031.70
2023-04-30T06:10:10.454Z,100027.13
2023-04-30T06:12:42.731Z,100030.37
2023-04-30T06:15:15.175Z,100035.09
2023-04-30T06:17:47.296Z,100042.08
2023-04-30T06:20:19.500Z,100038.30
2023-04-30T06:22:51.850Z,100034.53
2023-04-30T06:25:24.085Z,100029.01
2023-04-30T06:27:56.542Z,100034.15
2023-04-30T06:30:30.476Z,100025.83
2023-04-30T06:33:02.972Z,100029.67
2023-04-30T06:35:35.694Z,100035.75
2023-04-30T06:38:25.725Z,100030.94
2023-04-30T06:40:58.330Z,100034.09
2023-04-30T06:43:30.591Z,100032.02
2023-04-30T06:46:02.997Z,100032.02
2023-04-30T06:48:35.759Z,100028.78
2023-04-30T06:51:09.918Z,100020.83
2023-04-30T06:53:41.687Z,100018.28
2023-04-30T06:56:13.776Z,100015.89
2023-04-30T06:58:45.994Z,100015.72
2023-04-30T07:01:18.338Z,100000.41
2023-04-30T07:03:52.554Z,100009.14
2023-04-30T07:06:25.594Z,100002.62
2023-04-30T07:08:59.136Z,99997.48
2023-04-30T07:11:31.290Z,99991.38
2023-04-30T07:14:03.569Z,99984.71
2023-04-30T07:16:36.000Z,99972.91
2023-04-30T07:19:08.152Z,99981.91
2023-04-30T07:21:40.713Z,99982.16
2023-04-30T07:24:12.938Z,99982.87
2023-04-30T07:26:44.902Z,99981.55
2023-04-30T07:29:18.450Z,99972.02
2023-04-30T07:31:51.054Z,99974.30
2023-04-30T07:34:23.502Z,99972.95
2023-04-30T07:36:55.748Z,99965.63
2023-04-30T07:39:27.791Z,99957.77
2023-04-30T07:41:59.681Z,99955.61
2023-04-30T07:44:32.791Z,99957.28
2023-04-30T07:47:04.943Z,99942.44
2023-04-30T07:49:37.134Z,99950.05
2023-04-30T07:52:10.877Z,99932.44
2023-04-30T07:54:43.351Z,99930.75
2023-04-30T07:57:15.616Z,99916.86
2023-04-30T07:59:50.528Z,99902.30
2023-04-30T08:02:21.967Z,99897.91
2023-04-30T08:04:54.118Z,99893.41
2023-04-30T08:07:26.252Z,99884.34
2023-04-30T08:09:58.355Z,99881.44
2023-04-30T08:12:31.469Z,99876.37
2023-04-30T08:15:06.214Z,99874.34
2023-04-30T08:17:38.179Z,99872.27
2023-04-30T08:20:10.882Z,99861.41
2023-04-30T08:22:43.588Z,99856.33
2023-04-30T08:25:16.052Z,99855.63
2023-04-30T08:27:49.026Z,99845.95
2023-04-30T08:30:20.922Z,99844.02
2023-04-30T08:32:55.376Z,99832.11
2023-04-30T08:35:27.102Z,99823.09
2023-04-30T08:37:59.129Z,99827.55
2023-04-30T08:40:50.322Z,99822.14
2023-04-30T08:43:09.579Z,99822.14
2023-04-30T08:45:42.252Z,99818.27
2023-04-30T08:48:16.785Z,99817.17
2023-04-30T08:50:49.504Z,99817.77
2023-04-30T08:53:23.236Z,99822.22
2023-04-30T08:55:55.484Z,99819.05
2023-04-30T08:58:28.008Z,99798.07
2023-04-30T09:01:01.018Z,99807.16
2023-04-30T09:03:33.401Z,99797.66
2023-04-30T09:06:05.751Z,99794.86
2023-04-30T09:08:47.062Z,99786.95
2023-04-30T09:11:24.693Z,99787.19
2023-04-30T09:13:58.537Z,99778.64
2023-04-30T09:16:33.625Z,99776.97
2023-04-30T09:19:05.911Z,99768.03
2023-04-30T09:21:38.989Z,99757.06
2023-04-30T09:24:11.801Z,99753.70
2023-04-30T09:26:46.206Z,99751.77
2023-04-30T09:29:18.771Z,99752.62
2023-04-30T09:31:51.423Z,99750.83
2023-04-30T09:34:26.538Z,99747.31
2023-04-30T09:36:59.518Z,99738.88
2023-04-30T09:39:32.223Z,99740.94
2023-04-30T09:42:11.456Z,99730.81
2023-04-30T09:44:44.805Z,99728.02
2023-04-30T09:47:20.829Z,99709.44
2023-04-30T09:49:54.042Z,99706.90
2023-04-30T09:52:26.891Z,99705.92
2023-04-30T09:54:59.123Z,99704.48
2023-04-30T09:57:35.035Z,99709.09
2023-04-30T10:00:09.079Z,99696.77
2023-04-30T10:02:40.445Z,99700.92
2023-04-30T10:05:13.274Z,99699.06
2023-04-30T10:07:45.770Z,99702.34
2023-04-30T10:10:18.440Z,99695.13
2023-04-30T10:12:53.662Z,99693.42
2023-04-30T10:15:31.940Z,99667.17
2023-04-30T10:18:12.871Z,99692.67
2023-04-30T10:20:48.554Z,99692.90
2023-04-30T10:23:22.091Z,99693.63
2023-04-30T10:25:55.177Z,99688.80
2023-04-30T10:28:28.185Z,99695.60
2023-04-30T10:31:00.790Z,99695.60
2023-04-30T10:33:54.222Z,99694.05
2023-04-30T10:36:32.718Z,99700.20
2023-04-30T10:39:06.398Z,99701.98
2023-04-30T10:41:38.949Z,99705.35
2023-04-30T10:44:11.335Z,99701.96
2023-04-30T10:46:43.824Z,99706.55
2023-04-30T10:49:16.180Z,99697.02
2023-04-30T10:51:51.123Z,99690.29
2023-04-30T10:54:28.628Z,99692.86
2023-04-30T10:57:19.114Z,99691.62
2023-04-30T10:59:57.236Z,99692.95
2023-04-30T11:02:33.064Z,99693.53
2023-04-30T11:05:13.020Z,99695.13
2023-04-30T11:07:59.282Z,99695.33
2023-04-30T11:10:36.041Z,99693.40
2023-04-30T11:13:10.705Z,99699.73
2023-04-30T11:15:44.741Z,99710.66
2023-04-30T11:18:17.325Z,99700.33
2023-04-30T11:20:52.874Z,99693.90
2023-04-30T11:23:38.839Z,99696.09
2023-04-30T11:26:03.841Z,99686.94
2023-04-30T11:28:37.958Z,99664.74
2023-04-30T11:31:10.178Z,99659.55
2023-04-30T11:33:42.766Z,99659.75
2023-04-30T11:36:17.357Z,99652.36
2023-04-30T11:38:48.786Z,99646.50
2023-04-30T11:41:23.286Z,99648.95
2023-04-30T11:43:55.523Z,99632.91
2023-04-30T11:46:30.252Z,99627.72
2023-04-30T11:49:02.419Z,99623.23
2023-04-30T11:51:37.698Z,99615.94
2023-04-30T11:54:10.675Z,99613.84
2023-04-30T11:56:44.290Z,99607.15
2023-04-30T11:59:17.488Z,99606.72
2023-04-30T12:01:49.779Z,99600.16
2023-04-30T12:04:22.121Z,99608.97
2023-04-30T12:06:54.317Z,99599.73
2023-04-30T12:09:26.265Z,99592.71
2023-04-30T12:11:59.221Z,99596.89
2023-04-30T12:14:32.975Z,99588.78
2023-04-30T12:17:05.337Z,99590.73
2023-04-30T12:19:37.697Z,99592.30
2023-04-30T12:22:09.930Z,99575.64
2023-04-30T12:24:43.337Z,99578.44
2023-04-30T12:27:16.692Z,99581.34
2023-04-30T12:29:50.402Z,99577.72
2023-04-30T12:32:25.526Z,99566.31
2023-04-30T12:35:02.744Z,99583.35
2023-04-30T12:37:35.200Z,99585.45
2023-04-30T12:40:09.184Z,99580.84
2023-04-30T12:42:43.817Z,99585.64
2023-04-30T12:45:16.588Z,99589.86
2023-04-30T12:47:49.226Z,99595.58
2023-04-30T12:50:23.736Z,99599.33
2023-04-30T12:52:55.955Z,99596.47
2023-04-30T12:55:29.270Z,99600.17
2023-04-30T12:58:06.448Z,99595.49
2023-04-30T13:00:50.379Z,99598.61
2023-04-30T13:03:23.491Z,99598.61
2023-04-30T13:05:55.876Z,99590.91
2023-04-30T13:08:28.176Z,99559.13
2023-04-30T13:11:00.024Z,99579.70
2023-04-30T13:13:32.246Z,99574.03
2023-04-30T13:16:06.052Z,99574.03
2023-04-30T13:18:38.207Z,99574.89
2023-04-30T13:21:11.312Z,99571.61
2023-04-30T13:23:51.756Z,99558.91
2023-04-30T13:26:17.679Z,99558.91
2023-04-30T13:28:50.222Z,99575.01
2023-04-30T13:31:22.733Z,99579.09
2023-04-30T13:33:57.520Z,99572.80
2023-04-30T13:36:29.926Z,99578.34
2023-04-30T13:39:02.449Z,99563.88
2023-04-30T13:41:34.560Z,99562.53
2023-04-30T13:44:07.000Z,99565.75
2023-04-30T13:46:39.102Z,99560.91
2023-04-30T13:49:11.377Z,99543.83
2023-04-30T13:51:43.640Z,99539.31
2023-04-30T13:54:15.765Z,99538.20
2023-04-30T13:56:48.858Z,99533.35
2023-04-30T13:59:21.077Z,99535.70
2023-04-30T14:01:53.412Z,99522.00
2023-04-30T14:04:25.539Z,99516.11
2023-04-30T14:06:57.731Z,99509.36
2023-04-30T14:09:30.325Z,99502.51
2023-04-30T14:12:02.874Z,99499.19
2023-04-30T14:14:37.983Z,99496.05
2023-04-30T14:17:09.845Z,99488.58
2023-04-30T14:19:42.658Z,99491.65
2023-04-30T14:22:15.991Z,99491.35
2023-04-30T14:24:49.065Z,99498.87
2023-04-30T14:27:22.917Z,99478.42
2023-04-30T14:29:56.409Z,99478.12
2023-04-30T14:32:29.461Z,99481.20
2023-04-30T14:35:02.027Z,99470.00
2023-04-30T14:37:36.844Z,99463.80
2023-04-30T14:40:11.145Z,99458.23
2023-04-30T14:42:45.023Z,99462.23
2023-04-30T14:45:19.521Z,99459.83
2023-04-30T14:47:52.325Z,99454.01
2023-04-30T14:50:24.807Z,99441.98
2023-04-30T14:52:57.305Z,99429.97
2023-04-30T14:55:29.539Z,99426.61
2023-04-30T14:58:01.658Z,99416.16
2023-04-30T15:00:33.856Z,99421.44
2023-04-30T15:03:06.616Z,99424.52
2023-04-30T15:05:39.066Z,99416.91
2023-04-30T15:08:11.763Z,99408.48
2023-04-30T15:10:44.059Z,99408.66
2023-04-30T15:13:16.469Z,99401.05
2023-04-30T15:15:49.819Z,99394.21
2023-04-30T15:18:22.430Z,99400.64
2023-04-30T15:20:54.636Z,99386.95
2023-04-30T15:23:27.069Z,99384.51
2023-04-30T15:25:59.655Z,99385.47
2023-04-30T15:28:33.196Z,99385.67
2023-04-30T15:31:06.550Z,99378.92
2023-04-30T15:33:42.402Z,99382.71
2023-04-30T15:36:14.726Z,99373.47
2023-04-30T15:38:46.994Z,99373.04
2023-04-30T15:41:19.248Z,99363.43
2023-04-30T15:43:51.482Z,99362.70
2023-04-30T15:46:23.811Z,99358.59
2023-04-30T15:48:56.405Z,99359.75
2023-04-30T15:51:29.535Z,99348.36
2023-04-30T15:54:02.090Z,99352.14
2023-04-30T15:56:37.584Z,99340.98
2023-04-30T15:59:10.102Z,99335.20
2023-04-30T16:01:42.655Z,99330.33
2023-04-30T16:04:15.254Z,99336.22
2023-04-30T16:06:47.620Z,99332.52
2023-04-30T16:09:20.565Z,99321.42
2023-04-30T16:11:52.886Z,99317.16
2023-04-30T16:14:25.127Z,99321.41
2023-04-30T16:16:57.379Z,99309.14
2023-04-30T16:19:29.662Z,99313.19
2023-04-30T16:22:02.004Z,99305.91
2023-04-30T16:24:34.143Z,99298.61
2023-04-30T16:27:07.418Z,99295.26
2023-04-30T16:29:39.975Z,99290.73
2023-04-30T16:32:12.252Z,99280.31
2023-04-30T16:34:44.623Z,99282.94
2023-04-30T16:37:16.767Z,99265.40
2023-04-30T16:39:48.856Z,99264.55
2023-04-30T16:42:21.090Z,99260.52
2023-04-30T16:44:53.268Z,99245.70
2023-04-30T16:47:25.816Z,99241.77
2023-04-30T16:49:58.879Z,99237.20
2023-04-30T16:52:33.290Z,99214.06
2023-04-30T16:55:05.759Z,99216.33
2023-04-30T16:57:37.884Z,99218.59
2023-04-30T17:00:11.754Z,99216.65
2023-04-30T17:02:49.287Z,99213.02
2023-04-30T17:05:21.745Z,99217.34
2023-04-30T17:07:53.868Z,99221.45
2023-04-30T17:10:26.623Z,99223.69
2023-04-30T17:13:00.595Z,99237.37
2023-04-30T17:15:33.043Z,99237.55
2023-04-30T17:18:05.931Z,99237.81
2023-04-30T17:20:38.127Z,99235.62
2023-04-30T17:23:10.200Z,99240.30
2023-04-30T17:25:43.148Z,99246.75
2023-04-30T17:28:16.613Z,99239.34
2023-04-30T17:30:49.017Z,99247.84
2023-04-30T17:33:21.105Z,99244.98
2023-04-30T17:35:53.276Z,99246.17
2023-04-30T17:38:25.903Z,99240.36
2023-04-30T17:40:58.910Z,99240.73
2023-04-30T17:43:31.389Z,99241.06
2023-04-30T17:46:03.712Z,99244.95
2023-04-30T17:48:35.849Z,99226.23
2023-04-30T17:51:08.178Z,99233.67
2023-04-30T17:53:40.824Z,99240.02
2023-04-30T17:56:14.053Z,99232.41
2023-04-30T17:58:46.106Z,99237.80
2023-04-30T18:01:18.256Z,99236.20
2023-04-30T18:03:51.118Z,99224.05
2023-04-30T18:06:23.480Z,99225.89
2023-04-30T18:08:55.718Z,99227.77
2023-04-30T18:11:28.053Z,99211.40
2023-04-30T18:14:02.046Z,99210.70
2023-04-30T18:16:35.293Z,99217.73
2023-04-30T18:19:07.336Z,99207.34
2023-04-30T18:21:40.038Z,99208.25
2023-04-30T18:24:12.165Z,99197.89
2023-04-30T18:26:44.345Z,99194.41
2023-04-30T18:29:17.800Z,99195.27
2023-04-30T18:31:50.631Z,99195.16
2023-04-30T18:34:22.743Z,99189.27
2023-04-30T18:36:55.203Z,99184.03
2023-04-30T18:39:27.417Z,99178.95
2023-04-30T18:41:59.555Z,99175.59
2023-04-30T18:44:32.644Z,99176.45
2023-04-30T18:47:06.473Z,99178.13
2023-04-30T18:49:38.887Z,99176.45
2023-04-30T18:52:11.170Z,99172.04
2023-04-30T18:54:43.423Z,99175.67
2023-04-30T18:57:16.523Z,99179.31
2023-04-30T18:59:49.386Z,99174.08
2023-04-30T19:02:23.306Z,99174.94
2023-04-30T19:04:56.068Z,99173.99
2023-04-30T19:07:28.029Z,99169.50
2023-04-30T19:10:00.270Z,99166.89
2023-04-30T19:12:33.192Z,99159.23
2023-04-30T19:15:07.352Z,99145.38
2023-04-30T19:17:40.281Z,99142.59
2023-04-30T19:20:13.087Z,99138.10
2023-04-30T19:22:45.209Z,99128.48
2023-04-30T19:25:18.030Z,99128.73
2023-04-30T19:27:50.336Z,99120.06
2023-04-30T19:30:22.535Z,99114.98
2023-04-30T19:32:54.724Z,99112.30
2023-04-30T19:35:27.132Z,99107.88
2023-04-30T19:37:59.183Z,99104.69
2023-04-30T19:40:31.389Z,99097.94
2023-04-30T19:43:03.784Z,99096.34
2023-04-30T19:45:36.209Z,99096.62
2023-04-30T19:48:08.412Z,99096.09
2023-04-30T19:50:43.264Z,99099.06
2023-04-30T19:53:17.005Z,99084.11
2023-04-30T19:55:49.160Z,99086.06
2023-04-30T19:58:21.355Z,99077.28
2023-04-30T20:00:53.864Z,99076.45
2023-04-30T20:03:26.591Z,99077.20
2023-04-30T20:05:59.170Z,99079.08
2023-04-30T20:08:31.475Z,99077.36
2023-04-30T20:11:04.020Z,99064.20
2023-04-30T20:13:36.595Z,99063.30
2023-04-30T20:16:10.305Z,99055.45
2023-04-30T20:18:42.671Z,99052.84
2023-04-30T20:21:15.202Z,99047.48
2023-04-30T20:23:47.641Z,99039.64
2023-04-30T20:26:21.166Z,99023.05
2023-04-30T20:28:53.316Z,99018.64
2023-04-30T20:31:25.411Z,99026.56
2023-04-30T20:33:57.686Z,99016.30
2023-04-30T20:36:31.320Z,99016.30
2023-04-30T20:39:04.206Z,99007.77
2023-04-30T20:41:36.412Z,99003.30
2023-04-30T20:44:08.677Z,98997.42
2023-04-30T20:46:40.890Z,98988.97
2023-04-30T20:49:14.730Z,98997.75
2023-04-30T20:51:46.878Z,98991.86
2023-04-30T20:54:18.910Z,98993.75
2023-04-30T20:56:51.589Z,98999.75
2023-04-30T20:59:23.701Z,98992.93
2023-04-30T21:01:55.832Z,98988.72
2023-04-30T21:04:28.743Z,98976.55
2023-04-30T21:07:01.234Z,98964.50
2023-04-30T21:09:34.793Z,98958.53
2023-04-30T21:12:07.037Z,98950.77
2023-04-30T21:14:39.235Z,98931.62
2023-04-30T21:17:11.625Z,98928.92
2023-04-30T21:19:44.171Z,98923.69
2023-04-30T21:22:16.205Z,98919.41
2023-04-30T21:24:48.344Z,98921.24
2023-04-30T21:27:21.085Z,98930.02
2023-04-30T21:29:53.594Z,98943.95
2023-04-30T21:32:26.127Z,98944.77
2023-04-30T21:34:58.156Z,98946.64
2023-04-30T21:37:30.433Z,98934.52
2023-04-30T21:40:02.727Z,98941.41
2023-04-30T21:42:35.032Z,98944.88
2023-04-30T21:45:08.745Z,98934.67
2023-04-30T21:47:40.840Z,98920.75
2023-04-30T21:50:13.593Z,98900.70
2023-04-30T21:52:45.911Z,98899.77
2023-04-30T21:55:18.229Z,98897.31
2023-04-30T21:57:52.161Z,98901.80
2023-04-30T22:00:24.181Z,98920.83
2023-04-30T22:02:56.265Z,98939.05
2023-04-30T22:05:28.267Z,98952.03
2023-04-30T22:08:00.477Z,98950.27
2023-04-30T22:10:32.811Z,98940.64
2023-04-30T22:13:05.097Z,98933.66
2023-04-30T22:15:47.153Z,98929.20
2023-04-30T22:18:10.998Z,98930.71
2023-04-30T22:20:43.378Z,98927.24
2023-04-30T22:23:16.722Z,98927.90
2023-04-30T22:25:49.150Z,98924.27
2023-04-30T22:28:23.438Z,98935.49
2023-04-30T22:31:01.250Z,98936.43
2023-04-30T22:33:37.790Z,98939.78
2023-04-30T22:36:11.019Z,98943.17
2023-04-30T22:38:43.071Z,98941.30
2023-04-30T22:41:15.281Z,98935.93
2023-04-30T22:43:48.172Z,98927.91
2023-04-30T22:46:20.431Z,98919.05
2023-04-30T22:48:52.817Z,98927.72
2023-04-30T22:51:25.285Z,98925.10
2023-04-30T22:54:00.341Z,98920.55
2023-04-30T22:56:33.952Z,98913.62
2023-04-30T22:59:06.652Z,98919.87
2023-04-30T23:01:38.711Z,98909.33
2023-04-30T23:04:10.767Z,98894.83
2023-04-30T23:06:43.251Z,98898.38
2023-04-30T23:09:15.922Z,98904.47
2023-04-30T23:11:48.481Z,98916.34
2023-04-30T23:14:20.490Z,98905.69
2023-04-30T23:16:52.689Z,98899.97
2023-04-30T23:19:24.881Z,98903.36
2023-04-30T23:21:57.668Z,98894.09
2023-04-30T23:24:31.396Z,98890.45
2023-04-30T23:27:04.107Z,98883.55
2023-04-30T23:29:36.586Z,98878.41
2023-04-30T23:32:08.735Z,98863.88
2023-04-30T23:34:41.041Z,98863.23
2023-04-30T23:37:13.336Z,98866.01
2023-04-30T23:39:45.513Z,98862.55
2023-04-30T23:42:17.537Z,98867.69
2023-04-30T23:44:49.567Z,98862.62
2023-04-30T23:47:21.959Z,98860.95
2023-04-30T23:49:54.287Z,98856.58
2023-04-30T23:52:26.602Z,98858.98
2023-04-30T23:54:58.738Z,98846.94
2023-04-30T23:57:30.938Z,98839.02
